createdAt,value
2023-05-12T00:01:33.831Z,10.30
2023-05-12T00:04:01.377Z,10.48
2023-05-12T00:06:28.631Z,11.32
2023-05-12T00:08:55.742Z,11.15
2023-05-12T00:11:22.884Z,11.90
2023-05-12T00:13:50.032Z,10.30
2023-05-12T00:16:18.762Z,11.60
2023-05-12T00:18:46.167Z,10.90
2023-05-12T00:21:13.296Z,10.75
2023-05-12T00:23:40.464Z,11.35
2023-05-12T00:26:07.614Z,10.43
2023-05-12T00:28:35.850Z,9.82
2023-05-12T00:31:03.906Z,10.65
2023-05-12T00:33:31.358Z,12.38
2023-05-12T00:36:01.139Z,11.75
2023-05-12T00:38:28.214Z,11.27
2023-05-12T00:40:55.708Z,10.02
2023-05-12T00:43:22.952Z,9.02
2023-05-12T00:45:50.199Z,10.40
2023-05-12T00:48:17.449Z,9.77
2023-05-12T00:50:44.598Z,9.90
2023-05-12T00:53:12.311Z,10.77
2023-05-12T00:55:39.522Z,10.02
2023-05-12T00:58:06.749Z,11.18
2023-05-12T01:00:35.269Z,8.68
2023-05-12T01:03:02.746Z,10.65
2023-05-12T01:05:35.059Z,10.98
2023-05-12T01:08:02.871Z,10.80
2023-05-12T01:10:29.950Z,10.27
2023-05-12T01:12:57.536Z,10.60
2023-05-12T01:15:24.800Z,10.27
2023-05-12T01:17:58.258Z,12.38
2023-05-12T01:20:27.054Z,10.65
2023-05-12T01:22:55.377Z,12.20
2023-05-12T01:25:24.686Z,10.02
2023-05-12T01:27:52.710Z,9.57
2023-05-12T01:30:22.159Z,10.60
2023-05-12T01:32:49.700Z,10.40
2023-05-12T01:35:17.491Z,10.40
2023-05-12T01:37:51.936Z,9.77
2023-05-12T01:40:19.332Z,9.35
2023-05-12T01:42:46.656Z,10.88
2023-05-12T01:45:14.372Z,9.57
2023-05-12T01:47:41.719Z,9.50
2023-05-12T01:50:10.461Z,11.77
2023-05-12T01:52:38.051Z,10.20
2023-05-12T01:55:09.507Z,8.63
2023-05-12T01:57:44.464Z,10.25
2023-05-12T02:00:12.664Z,9.90
2023-05-12T02:02:45.980Z,8.25
2023-05-12T02:05:13.853Z,10.23
2023-05-12T02:07:43.287Z,10.50
2023-05-12T02:10:11.589Z,9.40
2023-05-12T02:12:38.996Z,10.80
2023-05-12T02:15:06.385Z,9.68
2023-05-12T02:17:35.822Z,8.63
2023-05-12T02:20:05.388Z,9.55
2023-05-12T02:22:32.570Z,8.13
2023-05-12T02:24:59.796Z,7.63
2023-05-12T02:27:27.653Z,8.55
2023-05-12T02:29:55.680Z,8.60
2023-05-12T02:32:22.924Z,8.18
2023-05-12T02:34:51.606Z,7.88
2023-05-12T02:37:18.799Z,9.15
2023-05-12T02:39:46.804Z,9.13
2023-05-12T02:42:13.881Z,8.18
2023-05-12T02:44:42.706Z,8.20
2023-05-12T02:47:09.836Z,8.98
2023-05-12T02:49:36.976Z,6.97
2023-05-12T02:52:04.237Z,8.27
2023-05-12T02:54:31.433Z,9.93
2023-05-12T02:56:59.786Z,9.55
2023-05-12T02:59:27.443Z,10.07
2023-05-12T03:01:54.544Z,10.95
2023-05-12T03:04:21.665Z,9.27
2023-05-12T03:06:49.437Z,8.95
2023-05-12T03:09:16.661Z,10.38
2023-05-12T03:11:43.776Z,11.82
2023-05-12T03:14:11.226Z,11.80
2023-05-12T03:16:38.643Z,14.15
2023-05-12T03:19:05.940Z,13.30
2023-05-12T03:21:33.164Z,13.45
2023-05-12T03:24:00.355Z,15.32
2023-05-12T03:26:27.458Z,13.25
2023-05-12T03:28:54.691Z,13.35
2023-05-12T03:31:21.871Z,12.50
2023-05-12T03:33:48.966Z,16.25
2023-05-12T03:36:16.239Z,13.77
2023-05-12T03:38:43.368Z,15.68
2023-05-12T03:41:13.564Z,14.68
2023-05-12T03:43:40.862Z,13.93
2023-05-12T03:46:08.455Z,16.23
2023-05-12T03:48:37.296Z,16.83
2023-05-12T03:51:04.723Z,19.20
2023-05-12T03:53:32.008Z,16.85
2023-05-12T03:55:59.297Z,18.27
2023-05-12T03:58:26.685Z,19.63
2023-05-12T04:00:57.001Z,21.55
2023-05-12T04:03:24.263Z,24.92
2023-05-12T04:05:51.485Z,22.00
2023-05-12T04:08:18.625Z,28.65
2023-05-12T04:10:45.757Z,25.23
2023-05-12T04:13:14.465Z,25.08
2023-05-12T04:15:41.572Z,21.80
2023-05-12T04:18:09.910Z,25.27
2023-05-12T04:20:37.536Z,24.95
2023-05-12T04:23:04.678Z,24.30
2023-05-12T04:25:31.920Z,23.98
2023-05-12T04:27:58.964Z,25.00
2023-05-12T04:30:26.020Z,25.60
2023-05-12T04:32:53.624Z,25.52
2023-05-12T04:35:21.192Z,26.80
2023-05-12T04:37:49.117Z,25.55
2023-05-12T04:40:16.754Z,32.70
2023-05-12T04:42:44.007Z,29.35
2023-05-12T04:45:12.134Z,29.65
2023-05-12T04:47:39.499Z,32.03
2023-05-12T04:50:06.938Z,32.20
2023-05-12T04:52:34.120Z,30.10
2023-05-12T04:55:01.595Z,32.45
2023-05-12T04:57:28.723Z,32.17
2023-05-12T04:59:56.495Z,33.03
2023-05-12T05:02:24.385Z,29.75
2023-05-12T05:04:52.614Z,31.55
2023-05-12T05:07:21.495Z,33.63
2023-05-12T05:09:48.712Z,30.73
2023-05-12T05:12:15.885Z,35.25
2023-05-12T05:14:43.035Z,30.40
2023-05-12T05:17:12.167Z,33.75
2023-05-12T05:19:53.709Z,31.35
2023-05-12T05:22:25.389Z,37.63
2023-05-12T05:24:52.554Z,34.53
2023-05-12T05:27:19.706Z,34.30
2023-05-12T05:29:46.825Z,35.83
2023-05-12T05:32:14.729Z,34.90
2023-05-12T05:34:42.193Z,32.13
2023-05-12T05:37:09.398Z,36.85
2023-05-12T05:39:38.230Z,34.75
2023-05-12T05:42:05.550Z,35.53
2023-05-12T05:44:32.948Z,36.00
2023-05-12T05:47:02.960Z,36.53
2023-05-12T05:49:30.237Z,38.50
2023-05-12T05:51:59.077Z,32.63
2023-05-12T05:54:26.492Z,36.20
2023-05-12T05:56:53.638Z,31.73
2023-05-12T05:59:20.953Z,34.42
2023-05-12T06:01:48.120Z,32.58
2023-05-12T06:04:16.091Z,31.80
2023-05-12T06:06:43.343Z,32.58
2023-05-12T06:09:12.286Z,36.10
2023-05-12T06:11:39.567Z,38.88
2023-05-12T06:14:06.678Z,39.10
2023-05-12T06:16:33.941Z,35.55
2023-05-12T06:19:01.137Z,33.83
2023-05-12T06:21:28.310Z,33.22
2023-05-12T06:23:56.310Z,31.58
2023-05-12T06:26:23.443Z,34.72
2023-05-12T06:28:50.580Z,34.50
2023-05-12T06:31:17.781Z,33.40
2023-05-12T06:33:47.834Z,38.38
2023-05-12T06:36:15.131Z,33.35
2023-05-12T06:38:42.205Z,35.10
2023-05-12T06:41:09.276Z,33.00
2023-05-12T06:43:36.339Z,31.40
2023-05-12T06:46:04.221Z,34.67
2023-05-12T06:48:31.385Z,30.30
2023-05-12T06:50:58.536Z,34.35
2023-05-12T06:53:29.347Z,34.90
2023-05-12T06:55:56.448Z,31.30
2023-05-12T06:58:24.385Z,33.72
2023-05-12T07:00:51.860Z,32.85
2023-05-12T07:03:18.949Z,36.00
2023-05-12T07:05:46.318Z,32.00
2023-05-12T07:08:13.497Z,33.13
2023-05-12T07:10:40.627Z,31.92
2023-05-12T07:13:07.687Z,32.88
2023-05-12T07:15:35.160Z,33.25
2023-05-12T07:18:02.379Z,32.90
2023-05-12T07:20:29.464Z,31.27
2023-05-12T07:22:56.684Z,31.70
2023-05-12T07:25:24.025Z,29.45
2023-05-12T07:27:51.211Z,32.78
2023-05-12T07:30:18.398Z,30.70
2023-05-12T07:32:46.169Z,27.50
2023-05-12T07:35:13.742Z,30.60
2023-05-12T07:37:41.469Z,27.50
2023-05-12T07:40:11.785Z,29.02
2023-05-12T07:42:39.008Z,34.38
2023-05-12T07:45:06.265Z,28.17
2023-05-12T07:47:33.454Z,26.05
2023-05-12T07:50:00.874Z,28.60
2023-05-12T07:52:28.044Z,25.25
2023-05-12T07:54:57.456Z,27.55
2023-05-12T07:57:25.083Z,25.90
2023-05-12T07:59:52.524Z,27.77
2023-05-12T08:02:20.680Z,25.48
2023-05-12T08:04:47.842Z,27.60
2023-05-12T08:07:15.732Z,24.58
2023-05-12T08:09:42.901Z,23.23
2023-05-12T08:12:10.044Z,23.55
2023-05-12T08:14:37.202Z,21.80
2023-05-12T08:17:05.091Z,26.08
2023-05-12T08:19:32.283Z,23.25
2023-05-12T08:21:59.388Z,21.83
2023-05-12T08:24:27.205Z,21.75
2023-05-12T08:26:54.254Z,22.42
2023-05-12T08:29:21.355Z,23.20
2023-05-12T08:31:48.538Z,21.35
2023-05-12T08:34:15.744Z,20.38
2023-05-12T08:36:42.845Z,21.23
2023-05-12T08:39:10.146Z,20.35
2023-05-12T08:41:47.412Z,20.95
2023-05-12T08:44:14.850Z,17.73
2023-05-12T08:46:42.701Z,17.63
2023-05-12T08:49:16.400Z,19.92
2023-05-12T08:51:56.841Z,17.95
2023-05-12T08:54:26.217Z,18.65
2023-05-12T08:59:24.346Z,17.38
2023-05-12T09:01:51.545Z,19.30
2023-05-12T09:04:18.719Z,19.80
2023-05-12T09:06:46.071Z,16.52
2023-05-12T09:09:15.536Z,18.52
2023-05-12T09:11:43.535Z,16.40
2023-05-12T09:14:13.414Z,15.50
2023-05-12T09:16:43.788Z,19.00
2023-05-12T09:19:11.051Z,15.43
2023-05-12T09:21:38.413Z,15.30
2023-05-12T09:24:06.865Z,15.55
2023-05-12T09:26:45.758Z,15.77
2023-05-12T09:29:20.746Z,13.98
2023-05-12T09:31:57.697Z,13.55
2023-05-12T09:34:31.757Z,11.45
2023-05-12T09:37:00.974Z,12.20
2023-05-12T09:39:28.988Z,13.18
2023-05-12T09:41:56.138Z,10.52
2023-05-12T09:44:24.437Z,10.93
2023-05-12T09:46:51.623Z,10.25
2023-05-12T09:49:22.759Z,12.02
2023-05-12T09:52:07.751Z,10.93
2023-05-12T09:54:34.963Z,10.93
2023-05-12T09:57:03.589Z,9.95
2023-05-12T09:59:38.553Z,10.35
2023-05-12T10:02:07.019Z,10.55
2023-05-12T10:04:45.447Z,9.63
2023-05-12T10:07:13.977Z,11.73
2023-05-12T10:09:42.564Z,10.85
2023-05-12T10:12:10.024Z,10.80
2023-05-12T10:14:37.578Z,10.73
2023-05-12T10:17:06.878Z,10.30
2023-05-12T10:19:35.935Z,9.50
2023-05-12T10:22:03.582Z,9.48
2023-05-12T10:24:30.675Z,10.23
2023-05-12T10:26:59.464Z,10.38
2023-05-12T10:29:29.911Z,9.43
2023-05-12T10:31:57.817Z,8.80
2023-05-12T10:34:30.072Z,9.50
2023-05-12T10:36:59.105Z,12.35
2023-05-12T10:39:30.125Z,10.60
2023-05-12T10:42:06.524Z,10.20
2023-05-12T10:44:33.742Z,8.70
2023-05-12T10:47:00.877Z,8.68
2023-05-12T10:49:40.248Z,9.90
2023-05-12T10:52:07.511Z,9.95
2023-05-12T10:54:40.325Z,9.02
2023-05-12T10:59:53.012Z,7.95
2023-05-12T11:02:26.299Z,8.57
2023-05-12T11:05:02.076Z,7.43
2023-05-12T11:07:31.282Z,7.72
2023-05-12T11:10:01.854Z,7.07
2023-05-12T11:12:33.408Z,9.23
2023-05-12T11:15:01.429Z,7.90
2023-05-12T11:17:28.856Z,7.72
2023-05-12T11:19:56.357Z,7.43
2023-05-12T11:22:24.108Z,8.30
2023-05-12T11:24:52.683Z,6.55
2023-05-12T11:27:22.432Z,7.88
2023-05-12T11:29:59.805Z,7.72
2023-05-12T11:32:27.519Z,6.22
2023-05-12T11:34:54.808Z,7.25
2023-05-12T11:37:22.724Z,7.18
2023-05-12T11:39:49.957Z,7.22
2023-05-12T11:42:19.691Z,7.13
2023-05-12T11:44:49.153Z,7.38
2023-05-12T11:47:17.080Z,10.27
2023-05-12T11:49:52.529Z,9.00
2023-05-12T11:52:20.836Z,7.55
2023-05-12T11:54:58.524Z,8.95
2023-05-12T11:57:30.394Z,8.10
2023-05-12T12:00:01.661Z,8.73
2023-05-12T12:02:33.444Z,8.80
2023-05-12T12:05:00.790Z,8.02
2023-05-12T12:07:34.784Z,11.73
2023-05-12T12:10:14.783Z,6.65
2023-05-12T12:12:42.410Z,6.40
2023-05-12T12:15:10.416Z,8.20
2023-05-12T12:17:37.666Z,6.88
2023-05-12T12:20:04.789Z,7.57
2023-05-12T12:22:34.214Z,6.82
2023-05-12T12:25:01.936Z,6.75
2023-05-12T12:27:29.030Z,9.98
2023-05-12T12:29:55.813Z,7.57
2023-05-12T12:32:22.968Z,6.95
2023-05-12T12:34:50.053Z,8.20
2023-05-12T12:37:17.197Z,7.93
2023-05-12T12:39:44.409Z,8.50
2023-05-12T12:42:11.457Z,7.45
2023-05-12T12:44:38.548Z,9.38
2023-05-12T12:47:05.790Z,7.57
2023-05-12T12:49:32.872Z,9.40
2023-05-12T12:51:59.954Z,10.10
2023-05-12T12:54:27.480Z,6.65
2023-05-12T12:56:56.598Z,7.65
2023-05-12T12:59:23.787Z,7.85
2023-05-12T13:01:50.953Z,8.07
2023-05-12T13:04:22.380Z,9.20
2023-05-12T13:06:49.349Z,9.65
2023-05-12T13:09:19.018Z,8.27
2023-05-12T13:11:47.170Z,12.70
2023-05-12T13:14:14.282Z,11.65
2023-05-12T13:16:41.736Z,9.98
2023-05-12T13:19:09.019Z,8.68
2023-05-12T13:21:36.166Z,12.60
2023-05-12T13:24:03.315Z,7.55
2023-05-12T13:26:30.491Z,8.60
2023-05-12T13:28:57.719Z,9.48
2023-05-12T13:31:25.928Z,9.10
2023-05-12T13:33:53.208Z,8.68
2023-05-12T13:36:20.345Z,7.75
2023-05-12T13:38:47.484Z,7.85
2023-05-12T13:41:14.592Z,7.75
2023-05-12T13:43:41.719Z,8.85
2023-05-12T13:46:09.382Z,8.13
2023-05-12T13:48:36.563Z,7.50
2023-05-12T13:51:03.657Z,10.27
2023-05-12T13:53:32.049Z,11.07
2023-05-12T13:56:15.021Z,9.80
2023-05-12T13:58:42.153Z,8.95
2023-05-12T14:01:09.813Z,9.90
2023-05-12T14:03:37.107Z,10.18
2023-05-12T14:06:04.727Z,10.70
2023-05-12T14:08:31.844Z,7.63
2023-05-12T14:10:58.981Z,7.30
2023-05-12T14:13:26.341Z,7.82
2023-05-12T14:15:54.138Z,8.55
2023-05-12T14:18:21.577Z,7.90
2023-05-12T14:20:48.851Z,8.68
2023-05-12T14:23:16.550Z,11.25
2023-05-12T14:25:43.732Z,10.20
2023-05-12T14:28:10.920Z,9.30
2023-05-12T14:30:38.313Z,9.80
2023-05-12T14:33:05.648Z,11.88
2023-05-12T14:35:32.826Z,10.05
2023-05-12T14:37:59.953Z,8.63
2023-05-12T14:40:27.408Z,8.73
2023-05-12T14:42:55.193Z,8.30
2023-05-12T14:45:22.548Z,9.13
2023-05-12T14:47:49.991Z,8.48
2023-05-12T14:50:19.018Z,7.90
2023-05-12T14:52:46.408Z,7.25
2023-05-12T14:55:13.891Z,8.00
2023-05-12T14:57:43.886Z,8.13
2023-05-12T15:00:12.618Z,7.90
2023-05-12T15:02:43.251Z,6.78
2023-05-12T15:05:10.927Z,7.07
2023-05-12T15:07:38.215Z,7.68
2023-05-12T15:10:05.938Z,8.77
2023-05-12T15:12:33.425Z,7.60
2023-05-12T15:15:05.261Z,7.32
2023-05-12T15:17:32.590Z,6.63
2023-05-12T15:19:59.704Z,8.32
2023-05-12T15:22:31.180Z,8.32
2023-05-12T15:24:58.788Z,8.80
2023-05-12T15:27:26.425Z,8.43
2023-05-12T15:29:53.952Z,8.98
2023-05-12T15:32:21.207Z,9.35
2023-05-12T15:34:48.344Z,8.40
2023-05-12T15:37:15.759Z,7.72
2023-05-12T15:39:43.211Z,7.43
2023-05-12T15:42:10.675Z,7.78
2023-05-12T15:44:39.740Z,6.80
2023-05-12T15:47:06.939Z,7.82
2023-05-12T15:49:33.995Z,7.72
2023-05-12T15:52:02.368Z,9.45
2023-05-12T15:54:30.814Z,9.68
2023-05-12T15:56:57.989Z,11.27
2023-05-12T15:59:26.063Z,9.55
2023-05-12T16:01:53.213Z,8.05
2023-05-12T16:04:20.378Z,8.32
2023-05-12T16:06:47.568Z,9.60
2023-05-12T16:09:14.777Z,8.90
2023-05-12T16:11:41.884Z,9.50
2023-05-12T16:14:09.703Z,7.35
2023-05-12T16:16:38.264Z,8.57
2023-05-12T16:19:05.592Z,9.85
2023-05-12T16:21:33.166Z,10.73
2023-05-12T16:24:00.285Z,8.73
2023-05-12T16:26:27.642Z,11.43
2023-05-12T16:28:54.792Z,8.98
2023-05-12T16:31:22.150Z,8.73
2023-05-12T16:33:49.326Z,8.27
2023-05-12T16:36:17.797Z,11.60
2023-05-12T16:38:45.745Z,9.82
2023-05-12T16:41:12.993Z,11.65
2023-05-12T16:43:40.109Z,10.88
2023-05-12T16:46:07.257Z,11.10
2023-05-12T16:48:34.695Z,10.35
2023-05-12T16:51:02.593Z,10.38
2023-05-12T16:53:29.975Z,11.13
2023-05-12T16:55:57.658Z,12.30
2023-05-12T16:58:27.543Z,10.43
2023-05-12T17:00:54.668Z,11.30
2023-05-12T17:03:22.777Z,9.70
2023-05-12T17:05:50.095Z,10.63
2023-05-12T17:08:18.947Z,9.52
2023-05-12T17:10:46.252Z,9.77
2023-05-12T17:13:13.415Z,10.85
2023-05-12T17:15:41.392Z,10.40
2023-05-12T17:18:08.638Z,10.65
2023-05-12T17:20:35.859Z,12.23
2023-05-12T17:23:03.092Z,10.20
2023-05-12T17:25:31.309Z,10.52
2023-05-12T17:27:58.603Z,10.07
2023-05-12T17:30:25.835Z,9.88
2023-05-12T17:32:53.564Z,11.02
2023-05-12T17:35:21.241Z,10.05
2023-05-12T17:37:52.010Z,12.85
2023-05-12T17:40:19.385Z,11.02
2023-05-12T17:42:46.591Z,11.65
2023-05-12T17:45:14.244Z,9.18
2023-05-12T17:47:41.436Z,11.65
2023-05-12T17:50:10.737Z,9.43
2023-05-12T17:52:38.455Z,11.50
2023-05-12T17:55:05.804Z,10.38
2023-05-12T17:57:32.958Z,12.02
2023-05-12T18:00:00.297Z,10.30
2023-05-12T18:02:27.521Z,9.88
2023-05-12T18:04:54.636Z,10.05
2023-05-12T18:07:22.263Z,12.38
2023-05-12T18:09:49.316Z,9.88
2023-05-12T18:12:18.010Z,9.10
2023-05-12T18:14:45.593Z,10.52
2023-05-12T18:17:12.826Z,9.30
2023-05-12T18:19:40.056Z,9.48
2023-05-12T18:22:07.272Z,10.15
2023-05-12T18:24:34.523Z,8.98
2023-05-12T18:27:01.886Z,9.38
2023-05-12T18:29:28.983Z,9.18
2023-05-12T18:31:56.389Z,10.60
2023-05-12T18:34:24.373Z,9.20
2023-05-12T18:36:51.803Z,12.55
2023-05-12T18:39:19.060Z,13.98
2023-05-12T18:41:46.273Z,10.73
2023-05-12T18:44:13.453Z,13.85
2023-05-12T18:46:40.700Z,10.20
2023-05-12T18:49:07.865Z,9.80
2023-05-12T18:51:36.871Z,11.15
2023-05-12T18:54:04.598Z,12.02
2023-05-12T18:56:31.711Z,13.05
2023-05-12T18:58:58.882Z,12.80
2023-05-12T19:01:26.419Z,13.15
2023-05-12T19:03:53.632Z,10.50
2023-05-12T19:06:21.438Z,7.75
2023-05-12T19:08:48.518Z,9.23
2023-05-12T19:11:15.652Z,8.15
2023-05-12T19:13:45.125Z,8.43
2023-05-12T19:16:12.354Z,9.63
2023-05-12T19:18:39.547Z,9.75
2023-05-12T19:21:06.710Z,9.15
2023-05-12T19:23:33.885Z,8.93
2023-05-12T19:26:00.973Z,8.68
2023-05-12T19:28:28.053Z,9.25
2023-05-12T19:30:55.906Z,7.35
2023-05-12T19:33:22.954Z,9.70
2023-05-12T19:35:50.298Z,9.02
2023-05-12T19:38:18.523Z,9.82
2023-05-12T19:40:45.702Z,10.88
2023-05-12T19:43:12.866Z,11.85
2023-05-12T19:45:40.350Z,12.75
2023-05-12T19:48:07.839Z,16.65
2023-05-12T19:50:35.134Z,17.05
2023-05-12T19:53:02.274Z,26.25
2023-05-12T19:55:30.090Z,31.88
2023-05-12T19:57:57.517Z,20.63
2023-05-12T20:00:26.532Z,16.00
2023-05-12T20:02:53.864Z,11.30
2023-05-12T20:05:21.357Z,12.68
2023-05-12T20:07:48.586Z,10.65
2023-05-12T20:10:15.697Z,9.90
2023-05-12T20:12:42.872Z,9.80
2023-05-12T20:15:10.183Z,11.20
2023-05-12T20:17:37.332Z,10.38
2023-05-12T20:20:05.288Z,10.25
2023-05-12T20:22:32.387Z,12.95
2023-05-12T20:25:04.060Z,9.90
2023-05-12T20:27:34.295Z,11.20
2023-05-12T20:30:01.370Z,11.52
2023-05-12T20:32:28.527Z,12.50
2023-05-12T20:34:55.776Z,12.40
2023-05-12T20:37:22.935Z,11.23
2023-05-12T20:39:50.063Z,12.15
2023-05-12T20:42:17.289Z,14.48
2023-05-12T20:44:44.431Z,13.63
2023-05-12T20:47:12.908Z,11.30
2023-05-12T20:49:40.841Z,13.02
2023-05-12T20:52:07.895Z,13.30
2023-05-12T20:54:35.083Z,12.23
2023-05-12T20:57:02.160Z,11.10
2023-05-12T20:59:29.417Z,11.68
2023-05-12T21:01:56.682Z,11.68
2023-05-12T21:04:24.019Z,12.73
2023-05-12T21:06:53.300Z,13.38
2023-05-12T21:09:20.988Z,11.95
2023-05-12T21:11:48.413Z,12.45
2023-05-12T21:14:15.692Z,13.88
2023-05-12T21:16:42.829Z,12.75
2023-05-12T21:19:09.985Z,13.55
2023-05-12T21:21:37.351Z,13.10
2023-05-12T21:24:04.540Z,12.93
2023-05-12T21:26:31.660Z,15.38
2023-05-12T21:29:02.632Z,12.50
2023-05-12T21:31:30.533Z,11.65
2023-05-12T21:33:57.627Z,12.77
2023-05-12T21:36:24.727Z,13.57
2023-05-12T21:38:51.830Z,13.02
2023-05-12T21:41:18.957Z,14.45
2023-05-12T21:43:46.123Z,12.13
2023-05-12T21:46:13.321Z,13.80
2023-05-12T21:48:40.543Z,12.82
2023-05-12T21:51:07.741Z,14.77
2023-05-12T21:53:34.856Z,12.85
2023-05-12T21:56:02.015Z,14.00
2023-05-12T21:58:29.065Z,12.90
2023-05-12T22:00:56.389Z,13.63
2023-05-12T22:03:25.222Z,12.35
2023-05-12T22:05:52.640Z,13.30
2023-05-12T22:08:19.892Z,16.38
2023-05-12T22:10:47.320Z,14.57
2023-05-12T22:13:14.441Z,14.05
2023-05-12T22:15:41.923Z,11.88
2023-05-12T22:18:09.140Z,12.70
2023-05-12T22:20:36.255Z,11.80
2023-05-12T22:23:03.713Z,18.23
2023-05-12T22:25:30.774Z,12.00
2023-05-12T22:27:57.913Z,13.00
2023-05-12T22:30:25.025Z,11.82
2023-05-12T22:32:52.315Z,12.50
2023-05-12T22:35:19.555Z,11.93
2023-05-12T22:37:46.614Z,12.30
2023-05-12T22:40:13.828Z,12.15
2023-05-12T22:42:40.898Z,15.13
2023-05-12T22:45:08.453Z,13.80
2023-05-12T22:47:35.847Z,15.43
2023-05-12T22:50:03.248Z,12.20
2023-05-12T22:52:30.353Z,14.25
2023-05-12T22:54:57.480Z,12.70
2023-05-12T22:57:24.581Z,13.45
2023-05-12T22:59:51.660Z,13.40
2023-05-12T23:02:18.764Z,11.35
2023-05-12T23:04:45.967Z,13.05
2023-05-12T23:07:13.033Z,11.70
2023-05-12T23:09:40.347Z,11.35
2023-05-12T23:12:07.691Z,11.55
2023-05-12T23:14:34.788Z,11.85
2023-05-12T23:17:01.940Z,11.23
2023-05-12T23:19:29.148Z,12.23
2023-05-12T23:21:56.243Z,12.48
2023-05-12T23:24:23.446Z,11.20
2023-05-12T23:26:50.858Z,12.55
2023-05-12T23:29:18.040Z,10.48
2023-05-12T23:31:45.219Z,10.55
2023-05-12T23:34:12.367Z,9.57
2023-05-12T23:36:39.575Z,9.65
2023-05-12T23:39:06.759Z,10.48
2023-05-12T23:41:36.154Z,11.85
2023-05-12T23:44:03.347Z,11.07
2023-05-12T23:46:30.577Z,11.90
2023-05-12T23:48:57.877Z,11.27
2023-05-12T23:51:25.117Z,9.65
2023-05-12T23:53:52.221Z,11.65
2023-05-12T23:56:19.287Z,11.30
2023-05-12T23:58:47.473Z,10.65
